Cottonville, North Carolina
Current Conditions -  °F | °C
As of 9:55 PM on Thursday 27 Nov 2014 (Local Time) from KVUJ Reporting Station
Clear Clear  
Wind Chill: 34°   Ceiling: Unl
Heat Index: 34°   Visibility: 10mi
Dew Point: 29°   Wind: 3mph
Humidity: 81%   Direction: 310°NW
Pressure: 30.3"   Gusts: NA
Location:  35.2152°N, 80.1663°W
Report Text: KVUJ 280255Z AUTO 31003KT 10SM CLR 01/M02 A3030 RMK AO2 LTG DSNT E T00131017
Loading
Personal Weather Stations






























Interactive Weather Map New forecast layout! Learn more

10-Day Weather Forecast

Advertisements
Track Severe Weather on mobile